Legal, Canada
Current Conditions -  °F | °C
As of 12:00 PM on Saturday 25 Oct 2014 (Local Time) from CYED Reporting Station
Clear Clear  
Wind Chill: 37°   Ceiling: Unl
Heat Index: 43°   Visibility: 9mi
Dew Point: 27°   Wind: 9mph
Humidity: 53%   Direction: 110°ESE
Pressure: 29.91"   Gusts: NA
Location:  53.95°N, 113.63°W
Report Text: CYED 251800Z AUTO 11008KT 9SM CLR 06/M03 A2991 RMK SLP154
Loading
Personal Weather Stations






























Interactive Weather Map
Tropical Storm Tracking
New forecast layout! Learn more

10-Day Weather Forecast

Advertisements
Track Severe Weather on mobile